sensor_id;sensor_type;location;lat;lon;timestamp;pressure;altitude;pressure_sealevel;temperature;humidity
76108;BME280;64834;52.516;10.528;2023-08-01T00:01:00;99284.97;;;16.51;100.00
76108;BME280;64834;52.516;10.528;2023-08-01T00:03:25;99281.44;;;16.47;100.00
76108;BME280;64834;52.516;10.528;2023-08-01T00:05:50;99280.50;;;16.45;100.00
76108;BME280;64834;52.516;10.528;2023-08-01T00:08:16;99262.94;;;16.47;100.00
76108;BME280;64834;52.516;10.528;2023-08-01T00:10:41;99249.69;;;16.44;100.00
76108;BME280;64834;52.516;10.528;2023-08-01T00:13:07;99255.03;;;16.47;100.00
76108;BME280;64834;52.516;10.528;2023-08-01T00:15:32;99246.25;;;16.51;100.00
76108;BME280;64834;52.516;10.528;2023-08-01T00:17:58;99251.56;;;16.54;100.00
76108;BME280;64834;52.516;10.528;2023-08-01T00:20:23;99245.41;;;16.54;100.00
76108;BME280;64834;52.516;10.528;2023-08-01T00:22:48;99234.84;;;16.54;100.00
76108;BME280;64834;52.516;10.528;2023-08-01T00:25:14;99226.88;;;16.51;100.00
76108;BME280;64834;52.516;10.528;2023-08-01T00:27:39;99222.53;;;16.57;100.00
76108;BME280;64834;52.516;10.528;2023-08-01T00:30:05;99233.97;;;16.55;100.00
76108;BME280;64834;52.516;10.528;2023-08-01T00:32:31;99221.63;;;16.55;100.00
76108;BME280;64834;52.516;10.528;2023-08-01T00:34:56;99220.69;;;16.47;100.00
76108;BME280;64834;52.516;10.528;2023-08-01T00:37:21;99218.06;;;16.50;100.00
76108;BME280;64834;52.516;10.528;2023-08-01T00:39:46;99205.75;;;16.51;100.00
76108;BME280;64834;52.516;10.528;2023-08-01T00:42:12;99206.63;;;16.50;100.00
76108;BME280;64834;52.516;10.528;2023-08-01T00:44:38;99210.19;;;16.56;100.00
76108;BME280;64834;52.516;10.528;2023-08-01T00:47:04;99216.31;;;16.49;100.00
76108;BME280;64834;52.516;10.528;2023-08-01T00:49:29;99204.91;;;16.56;100.00
76108;BME280;64834;52.516;10.528;2023-08-01T00:51:55;99203.09;;;16.51;100.00
76108;BME280;64834;52.516;10.528;2023-08-01T00:54:20;99196.94;;;16.49;100.00
76108;BME280;64834;52.516;10.528;2023-08-01T00:56:46;99189.91;;;16.51;100.00
76108;BME280;64834;52.516;10.528;2023-08-01T00:59:12;99176.69;;;16.51;100.00
76108;BME280;64834;52.516;10.528;2023-08-01T01:01:38;99174.06;;;16.49;100.00
76108;BME280;64834;52.516;10.528;2023-08-01T01:04:03;99171.38;;;16.41;100.00
76108;BME280;64834;52.516;10.528;2023-08-01T01:06:45;99173.13;;;16.44;100.00
76108;BME280;64834;52.516;10.528;2023-08-01T01:09:19;99166.97;;;16.43;100.00
76108;BME280;64834;52.516;10.528;2023-08-01T01:11:45;99172.22;;;16.37;100.00
76108;BME280;64834;52.516;10.528;2023-08-01T01:14:11;99166.94;;;16.40;100.00
76108;BME280;64834;52.516;10.528;2023-08-01T01:16:36;99152.88;;;16.44;100.00
76108;BME280;64834;52.516;10.528;2023-08-01T01:19:07;99162.56;;;16.42;100.00
76108;BME280;64834;52.516;10.528;2023-08-01T01:21:34;99146.72;;;16.45;100.00
76108;BME280;64834;52.516;10.528;2023-08-01T01:24:02;99153.72;;;16.40;100.00
76108;BME280;64834;52.516;10.528;2023-08-01T01:26:30;99140.56;;;16.43;100.00
76108;BME280;64834;52.516;10.528;2023-08-01T01:28:56;99136.16;;;16.41;100.00
76108;BME280;64834;52.516;10.528;2023-08-01T01:31:22;99137.03;;;16.43;100.00
76108;BME280;64834;52.516;10.528;2023-08-01T01:33:48;99130.00;;;16.43;100.00
76108;BME280;64834;52.516;10.528;2023-08-01T01:36:14;99131.72;;;16.38;100.00
76108;BME280;64834;52.516;10.528;2023-08-01T01:38:39;99128.19;;;16.35;100.00
76108;BME280;64834;52.516;10.528;2023-08-01T01:41:04;99127.31;;;16.34;100.00
76108;BME280;64834;52.516;10.528;2023-08-01T01:43:30;99123.75;;;16.32;100.00
76108;BME280;64834;52.516;10.528;2023-08-01T01:45:55;99117.59;;;16.29;100.00
76108;BME280;64834;52.516;10.528;2023-08-01T01:48:20;99114.91;;;16.24;100.00
76108;BME280;64834;52.516;10.528;2023-08-01T01:50:46;99114.91;;;16.27;100.00
76108;BME280;64834;52.516;10.528;2023-08-01T01:53:11;99112.31;;;16.33;100.00
76108;BME280;64834;52.516;10.528;2023-08-01T01:55:36;99114.06;;;16.30;100.00
76108;BME280;64834;52.516;10.528;2023-08-01T01:58:02;99107.09;;;16.38;100.00
76108;BME280;64834;52.516;10.528;2023-08-01T02:00:27;99109.69;;;16.32;100.00
76108;BME280;64834;52.516;10.528;2023-08-01T02:02:52;99098.25;;;16.30;100.00
76108;BME280;64834;52.516;10.528;2023-08-01T02:05:18;99096.47;;;16.32;100.00
76108;BME280;64834;52.516;10.528;2023-08-01T02:07:43;99092.09;;;16.32;100.00
76108;BME280;64834;52.516;10.528;2023-08-01T02:10:09;99092.06;;;16.29;100.00
76108;BME280;64834;52.516;10.528;2023-08-01T02:12:34;99091.16;;;16.27;100.00
76108;BME280;64834;52.516;10.528;2023-08-01T02:15:01;99090.25;;;16.21;100.00
76108;BME280;64834;52.516;10.528;2023-08-01T02:17:26;99084.13;;;16.25;100.00
76108;BME280;64834;52.516;10.528;2023-08-01T02:19:51;99083.25;;;16.24;100.00
76108;BME280;64834;52.516;10.528;2023-08-01T02:22:17;99082.38;;;16.27;100.00
76108;BME280;64834;52.516;10.528;2023-08-01T02:24:42;99083.25;;;16.24;100.00
76108;BME280;64834;52.516;10.528;2023-08-01T02:27:07;99081.53;;;16.31;100.00
76108;BME280;64834;52.516;10.528;2023-08-01T02:29:33;99078.88;;;16.29;100.00
76108;BME280;64834;52.516;10.528;2023-08-01T02:31:59;99072.69;;;16.24;100.00
76108;BME280;64834;52.516;10.528;2023-08-01T02:34:24;99073.53;;;16.22;100.00
76108;BME280;64834;52.516;10.528;2023-08-01T02:36:49;99071.81;;;16.27;100.00
76108;BME280;64834;52.516;10.528;2023-08-01T02:39:15;99052.47;;;16.31;100.00
76108;BME280;64834;52.516;10.528;2023-08-01T02:41:40;99051.59;;;16.32;100.00
76108;BME280;64834;52.516;10.528;2023-08-01T02:44:05;99055.16;;;16.37;100.00
76108;BME280;64834;52.516;10.528;2023-08-01T02:46:31;99051.59;;;16.30;100.00
76108;BME280;64834;52.516;10.528;2023-08-01T02:48:56;99058.66;;;16.31;100.00
76108;BME280;64834;52.516;10.528;2023-08-01T02:51:22;99046.41;;;16.41;100.00
76108;BME280;64834;52.516;10.528;2023-08-01T02:53:47;99047.28;;;16.41;100.00
76108;BME280;64834;52.516;10.528;2023-08-01T02:56:12;99041.09;;;16.38;100.00
76108;BME280;64834;52.516;10.528;2023-08-01T02:58:38;99041.13;;;16.45;100.00
76108;BME280;64834;52.516;10.528;2023-08-01T03:01:07;99030.56;;;16.41;100.00
76108;BME280;64834;52.516;10.528;2023-08-01T03:03:34;99034.97;;;16.46;100.00
76108;BME280;64834;52.516;10.528;2023-08-01T03:06:01;99024.44;;;16.50;100.00
76108;BME280;64834;52.516;10.528;2023-08-01T03:08:26;99007.72;;;16.52;100.00
76108;BME280;64834;52.516;10.528;2023-08-01T03:10:55;99006.81;;;16.49;100.00
76108;BME280;64834;52.516;10.528;2023-08-01T03:13:21;98993.59;;;16.45;100.00
76108;BME280;64834;52.516;10.528;2023-08-01T03:15:46;99000.59;;;16.37;100.00
76108;BME280;64834;52.516;10.528;2023-08-01T03:18:12;99004.97;;;16.34;100.00
76108;BME280;64834;52.516;10.528;2023-08-01T03:20:37;99008.53;;;16.37;100.00
76108;BME280;64834;52.516;10.528;2023-08-01T03:23:03;99011.16;;;16.37;100.00
76108;BME280;64834;52.516;10.528;2023-08-01T03:25:28;99023.47;;;16.35;100.00
76108;BME280;64834;52.516;10.528;2023-08-01T03:27:53;99026.09;;;16.31;100.00
76108;BME280;64834;52.516;10.528;2023-08-01T03:30:20;99016.44;;;16.36;100.00
76108;BME280;64834;52.516;10.528;2023-08-01T03:32:46;99002.34;;;16.34;100.00
76108;BME280;64834;52.516;10.528;2023-08-01T03:35:11;99004.09;;;16.32;100.00
76108;BME280;64834;52.516;10.528;2023-08-01T03:37:39;98991.75;;;16.25;100.00
76108;BME280;64834;52.516;10.528;2023-08-01T03:40:05;98991.78;;;16.29;100.00
76108;BME280;64834;52.516;10.528;2023-08-01T03:42:30;99000.56;;;16.28;100.00
76108;BME280;64834;52.516;10.528;2023-08-01T03:44:55;99004.09;;;16.30;100.00
76108;BME280;64834;52.516;10.528;2023-08-01T03:47:21;98985.59;;;16.26;100.00
76108;BME280;64834;52.516;10.528;2023-08-01T03:49:46;98995.28;;;16.31;100.00
76108;BME280;64834;52.516;10.528;2023-08-01T03:52:12;98985.63;;;16.29;100.00
76108;BME280;64834;52.516;10.528;2023-08-01T03:54:37;98982.97;;;16.30;100.00
76108;BME280;64834;52.516;10.528;2023-08-01T03:57:03;98978.56;;;16.32;100.00
76108;BME280;64834;52.516;10.528;2023-08-01T03:59:28;98979.41;;;16.27;100.00
76108;BME280;64834;52.516;10.528;2023-08-01T04:01:53;98971.53;;;16.30;100.00
76108;BME280;64834;52.516;10.528;2023-08-01T04:04:19;98968.00;;;16.31;100.00
76108;BME280;64834;52.516;10.528;2023-08-01T04:06:45;98965.34;;;16.28;100.00
76108;BME280;64834;52.516;10.528;2023-08-01T04:09:10;98981.19;;;16.26;100.00
76108;BME280;64834;52.516;10.528;2023-08-01T04:11:36;98986.50;;;16.31;100.00
76108;BME280;64834;52.516;10.528;2023-08-01T04:14:01;98974.19;;;16.28;100.00
76108;BME280;64834;52.516;10.528;2023-08-01T04:16:26;98961.81;;;16.26;100.00
76108;BME280;64834;52.516;10.528;2023-08-01T04:18:52;98953.94;;;16.32;100.00
76108;BME280;64834;52.516;10.528;2023-08-01T04:21:18;98956.56;;;16.30;100.00
76108;BME280;64834;52.516;10.528;2023-08-01T04:23:43;98961.84;;;16.29;100.00
76108;BME280;64834;52.516;10.528;2023-08-01T04:26:08;98948.69;;;16.35;100.00
76108;BME280;64834;52.516;10.528;2023-08-01T04:28:34;98948.69;;;16.36;100.00
76108;BME280;64834;52.516;10.528;2023-08-01T04:31:00;98949.53;;;16.31;100.00
76108;BME280;64834;52.516;10.528;2023-08-01T04:33:25;98947.81;;;16.37;100.00
76108;BME280;64834;52.516;10.528;2023-08-01T04:35:50;98940.75;;;16.39;100.00
76108;BME280;64834;52.516;10.528;2023-08-01T04:38:16;98939.03;;;16.41;100.00
76108;BME280;64834;52.516;10.528;2023-08-01T04:40:41;98943.41;;;16.35;100.00
76108;BME280;64834;52.516;10.528;2023-08-01T04:43:07;98937.22;;;16.31;100.00
76108;BME280;64834;52.516;10.528;2023-08-01T04:45:33;98947.75;;;16.22;100.00
76108;BME280;64834;52.516;10.528;2023-08-01T04:47:58;98946.03;;;16.30;100.00
76108;BME280;64834;52.516;10.528;2023-08-01T04:50:23;98946.03;;;16.32;100.00
76108;BME280;64834;52.516;10.528;2023-08-01T04:52:49;98947.78;;;16.33;100.00
76108;BME280;64834;52.516;10.528;2023-08-01T04:55:14;98950.44;;;16.34;100.00
76108;BME280;64834;52.516;10.528;2023-08-01T04:57:39;98951.34;;;16.41;100.00
76108;BME280;64834;52.516;10.528;2023-08-01T05:00:05;98951.34;;;16.42;100.00
76108;BME280;64834;52.516;10.528;2023-08-01T05:02:31;98959.25;;;16.39;100.00
76108;BME280;64834;52.516;10.528;2023-08-01T05:04:56;98954.84;;;16.38;100.00
76108;BME280;64834;52.516;10.528;2023-08-01T05:07:21;98955.72;;;16.36;100.00
76108;BME280;64834;52.516;10.528;2023-08-01T05:09:47;98956.63;;;16.45;100.00
76108;BME280;64834;52.516;10.528;2023-08-01T05:12:12;98958.41;;;16.42;100.00
76108;BME280;64834;52.516;10.528;2023-08-01T05:14:37;98958.41;;;16.48;100.00
76108;BME280;64834;52.516;10.528;2023-08-01T05:17:03;98960.19;;;16.48;100.00
76108;BME280;64834;52.516;10.528;2023-08-01T05:19:29;98954.88;;;16.44;100.00
76108;BME280;64834;52.516;10.528;2023-08-01T05:21:54;98958.41;;;16.51;100.00
76108;BME280;64834;52.516;10.528;2023-08-01T05:24:20;98960.19;;;16.51;100.00
76108;BME280;64834;52.516;10.528;2023-08-01T05:26:45;98967.16;;;16.36;100.00
76108;BME280;64834;52.516;10.528;2023-08-01T05:29:11;98972.44;;;16.35;100.00
76108;BME280;64834;52.516;10.528;2023-08-01T05:31:36;98965.41;;;16.38;100.00
76108;BME280;64834;52.516;10.528;2023-08-01T05:34:01;98972.47;;;16.42;100.00
76108;BME280;64834;52.516;10.528;2023-08-01T05:36:27;98967.16;;;16.36;100.00
76108;BME280;64834;52.516;10.528;2023-08-01T05:38:52;98970.66;;;16.34;100.00
76108;BME280;64834;52.516;10.528;2023-08-01T05:41:17;98975.97;;;16.35;100.00
76108;BME280;64834;52.516;10.528;2023-08-01T05:43:43;98972.41;;;16.29;100.00
76108;BME280;64834;52.516;10.528;2023-08-01T05:46:09;98966.22;;;16.24;100.00
76108;BME280;64834;52.516;10.528;2023-08-01T05:48:35;98961.75;;;16.15;100.00
76108;BME280;64834;52.516;10.528;2023-08-01T05:51:00;98960.84;;;16.07;100.00
76108;BME280;64834;52.516;10.528;2023-08-01T05:53:25;98970.53;;;16.06;100.00
76108;BME280;64834;52.516;10.528;2023-08-01T05:55:52;98957.31;;;16.05;100.00
76108;BME280;64834;52.516;10.528;2023-08-01T05:58:17;98968.78;;;16.11;100.00
76108;BME280;64834;52.516;10.528;2023-08-01T06:00:43;98967.00;;;16.09;100.00
76108;BME280;64834;52.516;10.528;2023-08-01T06:03:08;98963.50;;;16.07;100.00
76108;BME280;64834;52.516;10.528;2023-08-01T06:05:33;98973.16;;;16.03;100.00
76108;BME280;64834;52.516;10.528;2023-08-01T06:07:59;98973.13;;;16.02;100.00
76108;BME280;64834;52.516;10.528;2023-08-01T06:10:24;98978.44;;;16.03;100.00
76108;BME280;64834;52.516;10.528;2023-08-01T06:12:49;98985.44;;;16.03;100.00
76108;BME280;64834;52.516;10.528;2023-08-01T06:15:15;98997.75;;;15.98;100.00
76108;BME280;64834;52.516;10.528;2023-08-01T06:17:40;98990.72;;;16.03;100.00
76108;BME280;64834;52.516;10.528;2023-08-01T06:20:06;98993.34;;;15.98;100.00
76108;BME280;64834;52.516;10.528;2023-08-01T06:22:31;98995.03;;;15.90;100.00
76108;BME280;64834;52.516;10.528;2023-08-01T06:24:57;98993.34;;;15.98;100.00
76108;BME280;64834;52.516;10.528;2023-08-01T06:27:22;98987.22;;;16.07;100.00
76108;BME280;64834;52.516;10.528;2023-08-01T06:29:47;98979.38;;;16.16;100.00
76108;BME280;64834;52.516;10.528;2023-08-01T06:32:13;98976.75;;;16.21;100.00
76108;BME280;64834;52.516;10.528;2023-08-01T06:34:38;98989.94;;;16.21;100.00
76108;BME280;64834;52.516;10.528;2023-08-01T06:37:03;98979.44;;;16.22;100.00
76108;BME280;64834;52.516;10.528;2023-08-01T06:39:29;98983.00;;;16.39;100.00
76108;BME280;64834;52.516;10.528;2023-08-01T06:41:55;98976.88;;;16.43;100.00
76108;BME280;64834;52.516;10.528;2023-08-01T06:44:20;98984.81;;;16.50;100.00
76108;BME280;64834;52.516;10.528;2023-08-01T06:46:45;98983.91;;;16.44;100.00
76108;BME280;64834;52.516;10.528;2023-08-01T06:49:11;98980.41;;;16.47;100.00
76108;BME280;64834;52.516;10.528;2023-08-01T06:51:36;98987.50;;;16.62;100.00
76108;BME280;64834;52.516;10.528;2023-08-01T06:54:01;98985.75;;;16.62;100.00
76108;BME280;64834;52.516;10.528;2023-08-01T06:56:27;98987.53;;;16.60;100.00
76108;BME280;64834;52.516;10.528;2023-08-01T06:58:52;98986.53;;;16.40;100.00
76108;BME280;64834;52.516;10.528;2023-08-01T07:01:17;98989.16;;;16.37;100.00
76108;BME280;64834;52.516;10.528;2023-08-01T07:03:43;98985.69;;;16.52;100.00
76108;BME280;64834;52.516;10.528;2023-08-01T07:06:08;98991.91;;;16.55;100.00
76108;BME280;64834;52.516;10.528;2023-08-01T07:08:33;98985.72;;;16.55;100.00
76108;BME280;64834;52.516;10.528;2023-08-01T07:10:59;98998.09;;;16.60;100.00
76108;BME280;64834;52.516;10.528;2023-08-01T07:13:25;99005.13;;;16.63;100.00
76108;BME280;64834;52.516;10.528;2023-08-01T07:15:50;98995.41;;;16.57;100.00
76108;BME280;64834;52.516;10.528;2023-08-01T07:18:16;99001.69;;;16.75;100.00
76108;BME280;64834;52.516;10.528;2023-08-01T07:20:41;98994.66;;;16.72;100.00
76108;BME280;64834;52.516;10.528;2023-08-01T07:23:07;99003.38;;;16.68;100.00
76108;BME280;64834;52.516;10.528;2023-08-01T07:25:32;99001.69;;;16.75;100.00
76108;BME280;64834;52.516;10.528;2023-08-01T07:27:57;99004.34;;;16.84;100.00
76108;BME280;64834;52.516;10.528;2023-08-01T07:30:23;99014.91;;;16.79;100.00
76108;BME280;64834;52.516;10.528;2023-08-01T07:32:48;99010.50;;;16.72;100.00
76108;BME280;64834;52.516;10.528;2023-08-01T07:35:14;99014.03;;;16.80;100.00
76108;BME280;64834;52.516;10.528;2023-08-01T07:37:39;99021.84;;;16.65;100.00
76108;BME280;64834;52.516;10.528;2023-08-01T07:40:05;99016.59;;;16.66;100.00
76108;BME280;64834;52.516;10.528;2023-08-01T07:42:31;99013.03;;;16.61;100.00
76108;BME280;64834;52.516;10.528;2023-08-01T07:44:56;99014.78;;;16.58;100.00
76108;BME280;64834;52.516;10.528;2023-08-01T07:47:22;99018.34;;;16.67;100.00
76108;BME280;64834;52.516;10.528;2023-08-01T07:49:49;99015.78;;;16.75;100.00
76108;BME280;64834;52.516;10.528;2023-08-01T07:52:14;99030.72;;;16.71;100.00
76108;BME280;64834;52.516;10.528;2023-08-01T07:54:39;99027.13;;;16.65;100.00
76108;BME280;64834;52.516;10.528;2023-08-01T07:57:05;99036.06;;;16.79;100.00
76108;BME280;64834;52.516;10.528;2023-08-01T07:59:30;99031.56;;;16.69;100.00
76108;BME280;64834;52.516;10.528;2023-08-01T08:01:56;99030.75;;;16.75;100.00
76108;BME280;64834;52.516;10.528;2023-08-01T08:04:21;99038.66;;;16.78;100.00
76108;BME280;64834;52.516;10.528;2023-08-01T08:06:46;99028.06;;;16.71;100.00
76108;BME280;64834;52.516;10.528;2023-08-01T08:09:12;99026.34;;;16.78;100.00
76108;BME280;64834;52.516;10.528;2023-08-01T08:11:37;99031.63;;;16.75;100.00
76108;BME280;64834;52.516;10.528;2023-08-01T08:14:03;99032.53;;;16.83;100.00
76108;BME280;64834;52.516;10.528;2023-08-01T08:16:29;99039.59;;;16.87;100.00
76108;BME280;64834;52.516;10.528;2023-08-01T08:18:54;99043.06;;;16.77;100.00
76108;BME280;64834;52.516;10.528;2023-08-01T08:21:19;99039.63;;;16.98;100.00
76108;BME280;64834;52.516;10.528;2023-08-01T08:23:44;99041.41;;;17.07;100.00
76108;BME280;64834;52.516;10.528;2023-08-01T08:26:10;99036.94;;;16.83;100.00
76108;BME280;64834;52.516;10.528;2023-08-01T08:28:36;99041.31;;;16.78;100.00
76108;BME280;64834;52.516;10.528;2023-08-01T08:31:02;99030.81;;;16.91;100.00
76108;BME280;64834;52.516;10.528;2023-08-01T08:33:28;99041.41;;;17.05;100.00
76108;BME280;64834;52.516;10.528;2023-08-01T08:35:54;99037.91;;;17.12;100.00
76108;BME280;64834;52.516;10.528;2023-08-01T08:38:19;99045.81;;;17.09;100.00
76108;BME280;64834;52.516;10.528;2023-08-01T08:43:31;99045.00;;;17.24;100.00
76108;BME280;64834;52.516;10.528;2023-08-01T08:45:57;99037.91;;;17.06;99.63
76108;BME280;64834;52.516;10.528;2023-08-01T08:48:25;99044.09;;;17.10;97.95
76108;BME280;64834;52.516;10.528;2023-08-01T08:50:51;99045.88;;;17.23;99.37
76108;BME280;64834;52.516;10.528;2023-08-01T08:53:17;99037.94;;;17.24;99.61
76108;BME280;64834;52.516;10.528;2023-08-01T08:55:43;99033.50;;;17.22;99.56
76108;BME280;64834;52.516;10.528;2023-08-01T08:58:08;99038.84;;;17.45;95.69
76108;BME280;64834;52.516;10.528;2023-08-01T09:00:37;99032.72;;;17.89;96.52
76108;BME280;64834;52.516;10.528;2023-08-01T09:03:05;99023.03;;;17.95;97.12
76108;BME280;64834;52.516;10.528;2023-08-01T09:05:34;99025.66;;;18.08;93.06
76108;BME280;64834;52.516;10.528;2023-08-01T09:08:07;99029.22;;;17.81;93.01
76108;BME280;64834;52.516;10.528;2023-08-01T09:10:37;99030.09;;;17.76;91.95
76108;BME280;64834;52.516;10.528;2023-08-01T09:13:02;99032.72;;;18.12;91.04
76108;BME280;64834;52.516;10.528;2023-08-01T09:15:28;99033.50;;;18.56;89.30
76108;BME280;64834;52.516;10.528;2023-08-01T09:17:54;99033.44;;;18.78;86.79
76108;BME280;64834;52.516;10.528;2023-08-01T09:20:28;99013.84;;;19.08;85.78
76108;BME280;64834;52.516;10.528;2023-08-01T09:22:54;99019.09;;;19.16;86.47
76108;BME280;64834;52.516;10.528;2023-08-01T09:25:19;99018.94;;;19.41;85.78
76108;BME280;64834;52.516;10.528;2023-08-01T09:27:44;99018.06;;;19.41;81.15
76108;BME280;64834;52.516;10.528;2023-08-01T09:30:11;99010.28;;;19.13;80.60
76108;BME280;64834;52.516;10.528;2023-08-01T09:32:39;99011.69;;;19.71;79.36
76108;BME280;64834;52.516;10.528;2023-08-01T09:35:05;99007.56;;;19.26;79.58
76108;BME280;64834;52.516;10.528;2023-08-01T09:37:40;99007.81;;;18.66;80.96
76108;BME280;64834;52.516;10.528;2023-08-01T09:40:08;99004.13;;;19.08;81.05
76108;BME280;64834;52.516;10.528;2023-08-01T09:42:38;99012.78;;;19.38;80.92
76108;BME280;64834;52.516;10.528;2023-08-01T09:45:15;99002.28;;;19.24;80.82
76108;BME280;64834;52.516;10.528;2023-08-01T09:47:44;99007.78;;;18.83;79.71
76108;BME280;64834;52.516;10.528;2023-08-01T09:50:11;99010.28;;;19.13;81.10
76108;BME280;64834;52.516;10.528;2023-08-01T09:52:38;99003.06;;;19.37;80.25
76108;BME280;64834;52.516;10.528;2023-08-01T09:55:04;99011.88;;;19.40;81.06
76108;BME280;64834;52.516;10.528;2023-08-01T09:57:31;99011.91;;;19.37;79.92
76108;BME280;64834;52.516;10.528;2023-08-01T09:59:57;99019.13;;;19.17;78.69
76108;BME280;64834;52.516;10.528;2023-08-01T10:02:24;99015.38;;;19.49;79.08
76108;BME280;64834;52.516;10.528;2023-08-01T10:04:52;99010.81;;;19.69;78.61
76108;BME280;64834;52.516;10.528;2023-08-01T10:07:23;99006.44;;;19.57;74.05
76108;BME280;64834;52.516;10.528;2023-08-01T10:09:49;99017.72;;;19.88;72.60
76108;BME280;64834;52.516;10.528;2023-08-01T10:12:17;99026.56;;;19.89;74.87
76108;BME280;64834;52.516;10.528;2023-08-01T10:14:43;99013.28;;;19.90;74.04
76108;BME280;64834;52.516;10.528;2023-08-01T10:17:11;99018.31;;;20.19;67.60
76108;BME280;64834;52.516;10.528;2023-08-01T10:19:37;99016.81;;;19.89;70.27
76108;BME280;64834;52.516;10.528;2023-08-01T10:22:04;99020.88;;;20.27;71.39
76108;BME280;64834;52.516;10.528;2023-08-01T10:24:31;99023.38;;;20.45;68.84
76108;BME280;64834;52.516;10.528;2023-08-01T10:26:57;99021.59;;;20.44;69.76
76108;BME280;64834;52.516;10.528;2023-08-01T10:29:34;99025.06;;;20.53;69.50
76108;BME280;64834;52.516;10.528;2023-08-01T10:32:00;99022.69;;;20.24;68.57
76108;BME280;64834;52.516;10.528;2023-08-01T10:34:26;99031.50;;;20.29;69.65
76108;BME280;64834;52.516;10.528;2023-08-01T10:36:55;99034.72;;;20.63;69.99
76108;BME280;64834;52.516;10.528;2023-08-01T10:39:22;99045.41;;;20.55;69.33
76108;BME280;64834;52.516;10.528;2023-08-01T10:41:56;99038.19;;;20.66;66.80
76108;BME280;64834;52.516;10.528;2023-08-01T10:44:21;99035.44;;;20.74;68.55
76108;BME280;64834;52.516;10.528;2023-08-01T10:49:16;99034.41;;;20.06;69.47
76108;BME280;64834;52.516;10.528;2023-08-01T10:51:42;99032.25;;;20.40;68.08
76108;BME280;64834;52.516;10.528;2023-08-01T10:54:27;99034.06;;;21.13;67.70
76108;BME280;64834;52.516;10.528;2023-08-01T10:56:54;99019.09;;;21.66;66.09
76108;BME280;64834;52.516;10.528;2023-08-01T10:59:21;99022.31;;;21.28;62.32
76108;BME280;64834;52.516;10.528;2023-08-01T11:01:49;99032.72;;;20.79;64.71
76108;BME280;64834;52.516;10.528;2023-08-01T11:04:20;99024.06;;;20.64;64.07
76108;BME280;64834;52.516;10.528;2023-08-01T11:06:49;99027.97;;;20.28;63.44
76108;BME280;64834;52.516;10.528;2023-08-01T11:09:26;99026.19;;;20.29;62.66
76108;BME280;64834;52.516;10.528;2023-08-01T11:11:58;99030.09;;;19.91;64.46
76108;BME280;64834;52.516;10.528;2023-08-01T11:14:28;99036.19;;;20.01;65.34
76108;BME280;64834;52.516;10.528;2023-08-01T11:16:55;99024.97;;;20.60;64.50
76108;BME280;64834;52.516;10.528;2023-08-01T11:19:26;99022.41;;;20.56;60.90
76108;BME280;64834;52.516;10.528;2023-08-01T11:21:52;99026.72;;;20.61;60.31
76108;BME280;64834;52.516;10.528;2023-08-01T11:24:19;99019.75;;;20.56;61.57
76108;BME280;64834;52.516;10.528;2023-08-01T11:26:46;99023.09;;;20.70;62.39
76108;BME280;64834;52.516;10.528;2023-08-01T11:29:13;99031.19;;;20.59;62.51
76108;BME280;64834;52.516;10.528;2023-08-01T11:31:40;99023.44;;;21.13;60.72
76108;BME280;64834;52.516;10.528;2023-08-01T11:34:07;99032.56;;;21.55;60.49
76108;BME280;64834;52.516;10.528;2023-08-01T11:36:33;99031.25;;;21.24;57.08
76108;BME280;64834;52.516;10.528;2023-08-01T11:38:59;99041.72;;;20.70;59.48
76108;BME280;64834;52.516;10.528;2023-08-01T11:41:29;99032.41;;;20.26;60.64
76108;BME280;64834;52.516;10.528;2023-08-01T11:43:54;99040.75;;;19.86;62.70
76108;BME280;64834;52.516;10.528;2023-08-01T11:46:21;99042.75;;;19.51;67.95
76108;BME280;64834;52.516;10.528;2023-08-01T11:48:47;99055.53;;;18.77;72.38
76108;BME280;64834;52.516;10.528;2023-08-01T11:51:13;99091.84;;;18.08;79.93
76108;BME280;64834;52.516;10.528;2023-08-01T11:53:38;99091.75;;;17.49;85.29
76108;BME280;64834;52.516;10.528;2023-08-01T11:56:07;99100.56;;;17.42;89.67
76108;BME280;64834;52.516;10.528;2023-08-01T11:58:39;99091.72;;;17.33;88.74
76108;BME280;64834;52.516;10.528;2023-08-01T12:01:10;99092.66;;;17.64;89.89
76108;BME280;64834;52.516;10.528;2023-08-01T12:04:05;99086.53;;;17.85;88.32
76108;BME280;64834;52.516;10.528;2023-08-01T12:06:32;99081.25;;;18.17;89.51
76108;BME280;64834;52.516;10.528;2023-08-01T12:09:08;99085.63;;;18.39;87.06
76108;BME280;64834;52.516;10.528;2023-08-01T12:11:34;99084.63;;;18.92;88.45
76108;BME280;64834;52.516;10.528;2023-08-01T12:14:09;99087.31;;;18.77;84.88
76108;BME280;64834;52.516;10.528;2023-08-01T12:16:36;99094.34;;;18.85;84.96
76108;BME280;64834;52.516;10.528;2023-08-01T12:19:02;99100.63;;;18.34;84.21
76108;BME280;64834;52.516;10.528;2023-08-01T12:21:29;99100.66;;;18.37;84.16
76108;BME280;64834;52.516;10.528;2023-08-01T12:23:54;99117.44;;;18.05;88.29
76108;BME280;64834;52.516;10.528;2023-08-01T12:26:20;99137.72;;;18.02;90.13
76108;BME280;64834;52.516;10.528;2023-08-01T12:28:45;99114.78;;;17.73;91.10
76108;BME280;64834;52.516;10.528;2023-08-01T12:31:15;99103.31;;;17.79;93.54
76108;BME280;64834;52.516;10.528;2023-08-01T12:33:41;99105.06;;;18.08;94.66
76108;BME280;64834;52.516;10.528;2023-08-01T12:36:06;99095.34;;;18.25;92.14
76108;BME280;64834;52.516;10.528;2023-08-01T12:38:31;99094.44;;;18.50;94.10
76108;BME280;64834;52.516;10.528;2023-08-01T12:40:57;99085.66;;;18.19;90.69
76108;BME280;64834;52.516;10.528;2023-08-01T12:43:22;99090.06;;;18.37;91.97